Equality — ODTX — position and weather

sailwx.info

Track history (hours):
 
Tides and Currents Weather Stations Pressure Air Temp Water Temp Dewpoint Dewpoint Depression Visibility Wind Speed Wind Dir Waves Ship Positions

Equality

Last reported at 2018-Apr-14 07:46 UTC. Time now 2018-Apr-23 23:18 UTC.
Position N 28°33' W 013°32'.
Warning: this ship's position is 9 days out of date.

Length 124 m; draft 5.6 m.

Type: Cargo ship. MMSI: 450501000.

Date/timePositionNaut miles runAvg speedWind from/ knotsBaromVisibWave heightAir tempDewpointWater temp
2018-Apr-14 07:46N 28°33' W 013°32'3 9.9
2018-Apr-14 07:28N 28°35' W 013°30'5 9.8
2018-Apr-14 07:00N 28°39' W 013°27'5 9.6
2018-Apr-14 06:30N 28°43' W 013°24'5 9.6
2018-Apr-14 06:00N 28°46' W 013°19'5 9.7
2018-Apr-14 05:28N 28°49' W 013°15'  
2018-Apr-11 10:05N 35°59' W 005°32'1 6.7
2018-Apr-11 09:58N 35°59' W 005°31'3 6.6
2018-Apr-11 09:30N 35°60' W 005°27'3 6.4
2018-Apr-11 09:00N 36°01' W 005°24'3 6.1
2018-Apr-11 08:30N 36°02' W 005°20'  
2018-Apr-09 02:11N 37°34' W 000°59'2 4.9
2018-Apr-09 01:42N 37°32' W 001°01'1 6.1
2018-Apr-09 01:30N 37°31' W 001°01'2 0.1
2018-Apr-07 19:03N 37°33' W 001°03'3 0.1
2018-Apr-05 15:48N 37°32' W 000°59'2 5.6
2018-Apr-05 15:30N 37°31' W 000°58'3 7.0
2018-Apr-05 15:00N 37°29' W 000°54'4 7.9
2018-Apr-05 14:30N 37°30' W 000°49'4 8.1
2018-Apr-05 14:00N 37°30' W 000°44'4 8.1
2018-Apr-05 13:29N 37°30' W 000°38'4 8.1
2018-Apr-05 13:00N 37°30' W 000°33'4 8.1
2018-Apr-05 12:30N 37°31' W 000°28'4 8.0
2018-Apr-05 12:00N 37°30' W 000°23'4 7.8
2018-Apr-05 11:30N 37°31' W 000°18'5 8.0
2018-Apr-05 10:54N 37°31' W 000°12'4 8.5
2018-Apr-05 10:24N 37°31' W 000°07'122 9.4
2018-Apr-04 21:24N 37°35' E 002°26'5 9.4
2018-Apr-04 20:51N 37°35' E 002°33'9 9.4
2018-Apr-04 19:54N 37°35' E 002°44'  
Track history (hours):
 
Tides and Currents Weather Stations Pressure Air Temp Water Temp Dewpoint Dewpoint Depression Visibility Wind Speed Wind Dir Waves Ship Positions

Equality

Last reported at 2018-Apr-14 07:46 UTC. Time now 2018-Apr-23 23:18 UTC.
Position N 28°33' W 013°32'.
Warning: this ship's position is 9 days out of date.

Length 124 m; draft 5.6 m.

Type: Cargo ship. MMSI: 450501000.

Date/timePositionNaut miles runAvg speedWind from/ knotsBaromVisibWave heightAir tempDewpointWater temp
2018-Apr-14 07:46N 28°33' W 013°32'3 9.9
2018-Apr-14 07:28N 28°35' W 013°30'5 9.8
2018-Apr-14 07:00N 28°39' W 013°27'5 9.6
2018-Apr-14 06:30N 28°43' W 013°24'5 9.6
2018-Apr-14 06:00N 28°46' W 013°19'5 9.7
2018-Apr-14 05:28N 28°49' W 013°15'  
2018-Apr-11 10:05N 35°59' W 005°32'1 6.7
2018-Apr-11 09:58N 35°59' W 005°31'3 6.6
2018-Apr-11 09:30N 35°60' W 005°27'3 6.4
2018-Apr-11 09:00N 36°01' W 005°24'3 6.1
2018-Apr-11 08:30N 36°02' W 005°20'  
2018-Apr-09 02:11N 37°34' W 000°59'2 4.9
2018-Apr-09 01:42N 37°32' W 001°01'1 6.1
2018-Apr-09 01:30N 37°31' W 001°01'2 0.1
2018-Apr-07 19:03N 37°33' W 001°03'3 0.1
2018-Apr-05 15:48N 37°32' W 000°59'2 5.6
2018-Apr-05 15:30N 37°31' W 000°58'3 7.0
2018-Apr-05 15:00N 37°29' W 000°54'4 7.9
2018-Apr-05 14:30N 37°30' W 000°49'4 8.1
2018-Apr-05 14:00N 37°30' W 000°44'4 8.1
2018-Apr-05 13:29N 37°30' W 000°38'4 8.1
2018-Apr-05 13:00N 37°30' W 000°33'4 8.1
2018-Apr-05 12:30N 37°31' W 000°28'4 8.0
2018-Apr-05 12:00N 37°30' W 000°23'4 7.8
2018-Apr-05 11:30N 37°31' W 000°18'5 8.0
2018-Apr-05 10:54N 37°31' W 000°12'4 8.5
2018-Apr-05 10:24N 37°31' W 000°07'122 9.4
2018-Apr-04 21:24N 37°35' E 002°26'5 9.4
2018-Apr-04 20:51N 37°35' E 002°33'9 9.4
2018-Apr-04 19:54N 37°35' E 002°44'  

Dump ship's entire track history